Time;durP1;ratioP1;P1;durP2;ratioP2;P2;SDS_P1;SDS_P2;PMS_P1;PMS_P2;Temp;Humidity;BMP_temperature;BMP_pressure;BME280_temperature;BME280_humidity;BME280_pressure;Samples;Min_cycle;Max_cycle;Signal;HPM_P1;HPM_P2
2024/03/06 00:03:40;;;;;;;14.03;12.63;;;;;;;9.24;97.92;95653.56;5032570;28;20776;-85
2024/03/06 00:06:13;;;;;;;15.27;12.37;;;;;;;9.22;97.89;95650.41;5051880;28;20228;-83
2024/03/06 00:08:42;;;;;;;14.17;12.67;;;;;;;9.23;97.54;95646.84;5050503;28;20201;-85
2024/03/06 00:11:08;;;;;;;13.87;12.47;;;;;;;9.18;97.79;95649.91;5051923;28;20749;-84
2024/03/06 00:13:35;;;;;;;14.47;12.97;;;;;;;9.06;99.03;95663.25;5031944;28;20312;-85
2024/03/06 00:16:02;;;;;;;15.43;13.83;;;;;;;8.97;99.94;95680.47;5031564;28;20292;-84
2024/03/06 00:18:29;;;;;;;14.20;12.73;;;;;;;9.07;100.00;95693.13;5041161;28;20229;-84
2024/03/06 00:20:55;;;;;;;14.33;12.83;;;;;;;9.10;100.00;95693.59;5056221;28;20275;-84
2024/03/06 00:23:22;;;;;;;14.60;12.47;;;;;;;9.15;99.30;95680.25;5021999;28;20581;-84
2024/03/06 00:25:48;;;;;;;14.00;12.63;;;;;;;9.15;98.49;95667.41;5016032;28;20206;-84
2024/03/06 00:28:14;;;;;;;12.80;11.50;;;;;;;9.17;97.92;95656.03;5016345;28;20203;-85
2024/03/06 00:30:41;;;;;;;13.83;12.50;;;;;;;9.17;98.36;95665.50;5015740;28;20218;-84
2024/03/06 00:33:09;;;;;;;13.13;11.83;;;;;;;9.21;98.09;95666.78;5021262;28;20746;-84
2024/03/06 00:35:36;;;;;;;14.37;12.93;;;;;;;9.05;99.72;95685.56;5048715;28;20209;-85
2024/03/06 00:38:02;;;;;;;14.40;13.00;;;;;;;9.00;100.00;95678.38;5056003;28;20201;-84
2024/03/06 00:40:30;;;;;;;14.23;12.73;;;;;;;9.00;100.00;95680.16;5055498;28;20267;-85
2024/03/06 00:42:56;;;;;;;13.83;12.43;;;;;;;9.07;100.00;95688.78;5055454;28;20288;-84
2024/03/06 00:45:23;;;;;;;13.70;12.40;;;;;;;9.11;100.00;95678.97;5054952;28;20201;-84
2024/03/06 00:47:49;;;;;;;14.07;12.57;;;;;;;9.13;99.05;95665.00;5054976;28;20205;-85
2024/03/06 00:50:18;;;;;;;13.07;11.77;;;;;;;9.18;98.39;95652.47;5051267;28;20768;-85
2024/03/06 00:52:47;;;;;;;13.80;12.40;;;;;;;9.18;97.70;95644.78;5055309;28;20229;-84
2024/03/06 00:55:13;;;;;;;13.60;12.20;;;;;;;9.19;97.92;95645.59;5054851;28;20720;-85
2024/03/06 00:57:40;;;;;;;13.77;12.23;;;;;;;9.19;97.84;95650.72;5054940;28;20213;-84
2024/03/06 01:00:10;;;;;;;14.00;12.60;;;;;;;9.16;98.48;95653.63;5055310;28;20860;-84
2024/03/06 01:02:37;;;;;;;14.97;13.07;;;;;;;9.11;98.54;95655.88;5054682;28;20706;-85
2024/03/06 01:05:04;;;;;;;13.77;12.37;;;;;;;9.10;99.52;95669.69;5052548;28;20270;-85
2024/03/06 01:07:32;;;;;;;14.53;12.60;;;;;;;9.10;98.98;95667.09;5050177;28;20209;-85
2024/03/06 01:09:58;;;;;;;14.53;13.03;;;;;;;9.14;98.24;95653.78;5055308;28;20228;-84
2024/03/06 01:12:25;;;;;;;14.27;12.77;;;;;;;9.04;98.92;95648.03;5038063;28;20865;-85
2024/03/06 01:14:51;;;;;;;14.43;12.93;;;;;;;9.09;99.18;95657.78;5034502;28;20194;-84
2024/03/06 01:17:18;;;;;;;13.17;11.87;;;;;;;9.11;98.93;95658.44;5035184;28;20582;-85
2024/03/06 01:19:44;;;;;;;13.47;12.17;;;;;;;9.12;98.67;95657.47;5017321;28;20207;-85
2024/03/06 01:22:10;;;;;;;12.93;11.63;;;;;;;9.14;98.63;95656.34;5029115;28;20233;-85
2024/03/06 01:24:38;;;;;;;13.37;12.07;;;;;;;9.19;98.12;95636.09;5046717;28;20645;-84
2024/03/06 01:27:04;;;;;;;12.67;11.47;;;;;;;9.13;98.91;95646.22;5054519;28;20209;-85
2024/03/06 01:29:31;;;;;;;14.37;12.97;;;;;;;8.91;99.87;95653.69;5054343;28;20205;-84
2024/03/06 01:31:57;;;;;;;13.43;12.03;;;;;;;8.95;100.00;95661.84;5052854;28;20221;-85
2024/03/06 01:34:24;;;;;;;13.67;12.27;;;;;;;8.95;99.85;95660.09;5054103;28;20206;-85
2024/03/06 01:36:52;;;;;;;13.30;11.90;;;;;;;8.96;100.00;95661.69;5054494;28;20209;-85
2024/03/06 01:39:19;;;;;;;13.07;11.87;;;;;;;9.02;100.00;95660.25;5050134;28;20201;-85
2024/03/06 01:41:47;;;;;;;13.57;12.17;;;;;;;9.02;99.82;95662.81;5053934;28;20795;-85
2024/03/06 01:44:14;;;;;;;13.47;12.07;;;;;;;8.91;99.86;95655.44;5053632;28;20292;-84
2024/03/06 01:46:40;;;;;;;13.60;12.20;;;;;;;8.86;100.00;95665.41;5053765;28;20205;-85
2024/03/06 01:49:07;;;;;;;14.57;12.87;;;;;;;8.78;100.00;95655.16;5054234;28;20201;-85
2024/03/06 01:51:34;;;;;;;14.80;13.30;;;;;;;8.76;100.00;95668.16;5054625;28;20241;-84
2024/03/06 01:54:03;;;;;;;14.27;12.87;;;;;;;8.74;100.00;95680.34;5049996;28;20270;-85
2024/03/06 01:56:31;;;;;;;14.43;12.93;;;;;;;8.74;100.00;95692.38;5054589;28;20241;-85
2024/03/06 01:58:59;;;;;;;15.10;13.50;;;;;;;8.72;100.00;95684.84;5054298;28;20193;-84
2024/03/06 02:01:26;;;;;;;14.73;13.23;;;;;;;8.79;100.00;95678.09;5054552;28;20221;-84
2024/03/06 02:03:53;;;;;;;15.17;13.53;;;;;;;8.84;100.00;95681.00;5053241;28;20204;-85
2024/03/06 02:06:20;;;;;;;14.63;13.10;;;;;;;8.87;100.00;95667.00;5053851;28;20663;-84
2024/03/06 02:08:47;;;;;;;16.00;14.30;;;;;;;8.80;100.00;95684.84;5036767;28;20229;-84
2024/03/06 02:11:15;;;;;;;16.20;14.50;;;;;;;8.78;100.00;95679.06;5045103;28;20625;-84
2024/03/06 02:13:41;;;;;;;16.40;13.90;;;;;;;8.81;100.00;95672.81;5051016;28;20225;-84
2024/03/06 02:16:10;;;;;;;15.63;14.03;;;;;;;8.83;100.00;95670.88;5014838;28;20214;-84
2024/03/06 02:18:37;;;;;;;16.20;14.53;;;;;;;8.82;100.00;95659.00;5013770;28;20561;-84
2024/03/06 02:21:07;;;;;;;16.47;14.70;;;;;;;8.87;100.00;95651.59;5012934;28;20249;-84
2024/03/06 02:23:33;;;;;;;16.43;14.73;;;;;;;8.80;100.00;95658.38;5013227;28;20257;-85
2024/03/06 02:26:00;;;;;;;16.70;14.90;;;;;;;8.80;100.00;95661.75;5018838;28;20198;-84
2024/03/06 02:28:26;;;;;;;17.43;14.90;;;;;;;8.89;100.00;95650.47;5052835;28;20205;-84
2024/03/06 02:30:52;;;;;;;17.07;14.70;;;;;;;8.90;100.00;95656.41;5053367;28;20236;-84
2024/03/06 02:33:20;;;;;;;18.77;16.00;;;;;;;8.93;100.00;95648.38;5051542;28;20279;-85
2024/03/06 02:35:46;;;;;;;17.10;14.43;;;;;;;8.98;100.00;95652.06;5052279;28;20239;-84
2024/03/06 02:38:14;;;;;;;15.50;13.90;;;;;;;9.00;100.00;95651.91;5053034;28;20193;-84
2024/03/06 02:40:44;;;;;;;16.33;14.63;;;;;;;9.03;100.00;95645.63;5053682;28;20229;-85
2024/03/06 02:43:10;;;;;;;16.00;13.73;;;;;;;9.07;100.00;95650.25;5048620;28;20610;-84
2024/03/06 02:45:37;;;;;;;18.03;14.57;;;;;;;9.03;100.00;95649.00;5052143;28;20206;-85
2024/03/06 02:48:04;;;;;;;16.40;14.33;;;;;;;9.03;100.00;95645.63;5052319;28;20668;-84
2024/03/06 02:50:31;;;;;;;17.87;15.00;;;;;;;9.06;100.00;95648.66;5052358;28;20225;-84
2024/03/06 02:52:57;;;;;;;16.00;14.23;;;;;;;8.93;100.00;95667.16;5052275;28;20228;-85
2024/03/06 02:55:25;;;;;;;16.03;14.03;;;;;;;8.93;100.00;95671.50;5052208;28;20201;-85
2024/03/06 02:57:52;;;;;;;17.30;14.80;;;;;;;8.99;100.00;95661.38;5049803;28;20315;-84
2024/03/06 03:00:18;;;;;;;16.67;14.80;;;;;;;9.05;100.00;95667.59;5046190;28;20233;-85
2024/03/06 03:02:44;;;;;;;16.97;14.73;;;;;;;9.10;100.00;95659.41;5052190;28;20773;-84
2024/03/06 03:05:11;;;;;;;17.07;14.87;;;;;;;9.11;100.00;95654.09;5033395;28;20202;-84
2024/03/06 03:07:37;;;;;;;16.07;13.83;;;;;;;9.17;100.00;95652.66;5032562;28;20190;-85
2024/03/06 03:10:06;;;;;;;16.43;14.57;;;;;;;9.13;100.00;95647.03;5032532;28;20743;-84
2024/03/06 03:12:33;;;;;;;16.50;14.43;;;;;;;9.16;100.00;95648.47;5024192;28;20560;-84
2024/03/06 03:15:00;;;;;;;16.37;14.57;;;;;;;9.16;100.00;95654.41;5037443;28;20270;-84
2024/03/06 03:17:27;;;;;;;15.57;13.67;;;;;;;9.17;100.00;95650.88;5052024;28;20213;-85
2024/03/06 03:19:54;;;;;;;17.27;14.67;;;;;;;9.15;100.00;95657.16;5051845;28;20296;-84
2024/03/06 03:22:20;;;;;;;17.37;14.47;;;;;;;9.17;100.00;95647.50;5051922;28;20298;-84
2024/03/06 03:24:47;;;;;;;17.07;13.80;;;;;;;9.19;100.00;95643.00;5051902;28;20213;-84
2024/03/06 03:27:13;;;;;;;17.13;13.83;;;;;;;9.11;100.00;95641.25;5051880;28;20248;-84
2024/03/06 03:29:41;;;;;;;15.33;12.97;;;;;;;8.92;100.00;95662.19;5051661;28;20205;-85
2024/03/06 03:32:07;;;;;;;15.83;13.30;;;;;;;8.95;100.00;95662.66;5048508;28;20205;-84
2024/03/06 03:34:35;;;;;;;15.23;13.30;;;;;;;8.71;100.00;95667.84;5050511;28;20225;-85
2024/03/06 03:37:04;;;;;;;16.23;13.07;;;;;;;8.51;100.00;95689.66;5051008;28;20208;-85
2024/03/06 03:39:31;;;;;;;9.77;8.30;;;;;;;8.31;100.00;95689.94;5052399;28;20209;-84
2024/03/06 03:41:57;;;;;;;6.33;5.53;;;;;;;8.37;100.00;95664.66;5052422;28;20225;-84
2024/03/06 03:44:24;;;;;;;6.47;5.63;;;;;;;8.45;100.00;95656.97;5051864;28;20389;-85
2024/03/06 03:46:51;;;;;;;5.87;4.37;;;;;;;8.46;100.00;95636.28;5048904;28;20194;-84
2024/03/06 03:49:18;;;;;;;4.43;4.03;;;;;;;8.43;99.91;95633.25;5052022;28;20201;-84
2024/03/06 03:51:44;;;;;;;4.30;3.90;;;;;;;8.39;98.98;95617.38;5051453;28;20312;-85
2024/03/06 03:54:11;;;;;;;3.60;3.30;;;;;;;8.41;98.96;95620.56;5050525;28;20229;-84
2024/03/06 03:56:37;;;;;;;3.53;3.23;;;;;;;8.43;99.28;95621.22;5051115;28;20209;-84
2024/03/06 03:59:03;;;;;;;3.83;3.43;;;;;;;8.45;99.91;95636.44;5050892;28;20209;-84
2024/03/06 04:01:30;;;;;;;3.93;3.13;;;;;;;8.53;100.00;95639.00;5032298;28;20270;-85
2024/03/06 04:03:58;;;;;;;3.53;3.23;;;;;;;8.60;99.58;95639.94;5042371;28;20216;-84
2024/03/06 04:06:24;;;;;;;4.47;3.60;;;;;;;8.55;97.81;95611.41;5048976;28;20675;-84
2024/03/06 04:08:51;;;;;;;3.57;3.27;;;;;;;8.54;97.46;95610.59;5015403;28;20249;-85
2024/03/06 04:11:18;;;;;;;3.97;3.60;;;;;;;8.55;96.84;95601.94;5012429;28;20249;-85
2024/03/06 04:13:44;;;;;;;3.20;2.90;;;;;;;8.53;97.33;95609.00;5030923;28;20233;-84
2024/03/06 04:16:10;;;;;;;3.63;3.33;;;;;;;8.59;97.31;95613.50;5030822;28;20628;-85
2024/03/06 04:18:37;;;;;;;3.90;3.50;;;;;;;8.68;97.15;95614.25;5028834;28;20198;-84
2024/03/06 04:21:06;;;;;;;4.23;3.83;;;;;;;8.70;96.99;95614.09;5049598;28;20221;-84
2024/03/06 04:23:33;;;;;;;4.17;3.77;;;;;;;8.74;96.84;95616.19;5049773;28;20205;-85
2024/03/06 04:25:59;;;;;;;4.03;3.63;;;;;;;8.74;95.87;95594.84;5050690;28;20292;-85
2024/03/06 04:28:26;;;;;;;4.03;3.73;;;;;;;8.61;97.37;95618.47;5051775;28;20279;-84
2024/03/06 04:30:52;;;;;;;4.37;3.97;;;;;;;8.58;98.16;95632.41;5050067;28;20232;-84
2024/03/06 04:33:19;;;;;;;4.50;4.10;;;;;;;8.50;100.00;95659.84;5048381;28;20738;-84
2024/03/06 04:35:45;;;;;;;4.43;4.03;;;;;;;8.55;100.00;95653.25;5046027;28;20198;-84
2024/03/06 04:38:13;;;;;;;4.67;4.20;;;;;;;8.49;100.00;95661.59;5049517;28;20206;-84
2024/03/06 04:40:40;;;;;;;4.70;4.30;;;;;;;8.37;99.25;95646.69;5049634;28;20226;-84
2024/03/06 04:43:06;;;;;;;5.40;4.63;;;;;;;8.42;99.13;95647.03;5050505;28;20813;-85
2024/03/06 04:45:33;;;;;;;4.57;4.10;;;;;;;8.50;99.53;95662.41;5051579;28;20221;-85
2024/03/06 04:47:59;;;;;;;5.30;4.80;;;;;;;8.49;99.07;95651.34;5050182;28;20706;-84
2024/03/06 04:50:27;;;;;;;4.60;4.20;;;;;;;8.49;99.43;95659.03;5049301;28;20221;-84
2024/03/06 04:52:53;;;;;;;5.00;4.50;;;;;;;8.48;100.00;95669.44;5046394;28;20206;-85
2024/03/06 04:55:22;;;;;;;5.33;4.83;;;;;;;8.47;100.00;95681.47;5049770;28;20300;-84
2024/03/06 04:57:49;;;;;;;6.17;4.90;;;;;;;8.49;99.86;95666.72;5029985;28;20198;-84
2024/03/06 05:00:18;;;;;;;4.30;3.73;;;;;;;8.53;98.38;95660.31;5030116;28;20222;-84
2024/03/06 05:02:44;;;;;;;4.30;3.90;;;;;;;8.42;97.78;95647.81;5028086;28;20213;-84
2024/03/06 05:05:11;;;;;;;3.80;3.50;;;;;;;8.36;98.01;95656.16;5016482;28;20241;-85
2024/03/06 05:07:37;;;;;;;4.00;3.60;;;;;;;8.37;98.36;95662.09;5024850;28;20194;-85
2024/03/06 05:10:04;;;;;;;4.30;3.90;;;;;;;8.32;98.28;95663.38;5053621;28;20718;-84
2024/03/06 05:12:31;;;;;;;4.33;3.80;;;;;;;8.28;98.63;95671.50;5042120;28;20198;-85
2024/03/06 05:14:58;;;;;;;4.27;3.87;;;;;;;8.27;99.02;95682.75;5035893;28;20356;-85
2024/03/06 05:17:24;;;;;;;4.27;3.60;;;;;;;8.32;98.39;95678.75;5036386;28;20260;-85
2024/03/06 05:19:51;;;;;;;4.00;3.60;;;;;;;8.20;98.73;95686.91;5034982;28;20206;-85
2024/03/06 05:22:19;;;;;;;4.40;3.67;;;;;;;8.14;97.37;95664.44;5035727;28;20695;-84
2024/03/06 05:24:46;;;;;;;4.07;3.70;;;;;;;8.09;97.25;95669.25;5047737;28;20252;-84
2024/03/06 05:27:16;;;;;;;3.60;3.30;;;;;;;7.98;98.63;95685.75;5052441;28;20256;-84
2024/03/06 05:29:44;;;;;;;4.27;3.87;;;;;;;8.05;99.01;95691.88;5052241;28;20212;-84
2024/03/06 05:32:10;;;;;;;3.80;3.50;;;;;;;8.05;98.52;95688.50;5052664;28;20217;-84
2024/03/06 05:34:37;;;;;;;4.57;4.17;;;;;;;8.03;99.19;95701.47;5058413;28;20653;-84
2024/03/06 05:37:03;;;;;;;4.03;3.73;;;;;;;8.13;98.73;95707.25;5056810;28;20206;-85
2024/03/06 05:39:30;;;;;;;4.20;3.80;;;;;;;8.21;98.14;95696.22;5051736;28;20203;-85
2024/03/06 05:42:02;;;;;;;4.10;3.80;;;;;;;8.20;97.57;95690.28;5054543;28;20229;-85
2024/03/06 05:44:29;;;;;;;4.40;4.00;;;;;;;8.12;96.28;95666.38;5053735;28;20734;-85
2024/03/06 05:46:58;;;;;;;4.10;3.73;;;;;;;8.13;97.30;95681.59;5053108;28;20201;-84
2024/03/06 05:49:25;;;;;;;4.53;4.13;;;;;;;8.14;96.73;95683.22;5041882;28;20199;-85
2024/03/06 05:51:52;;;;;;;4.13;3.73;;;;;;;8.15;96.05;95676.31;5021349;28;20222;-84
2024/03/06 05:54:19;;;;;;;4.00;3.70;;;;;;;8.11;95.27;95657.88;5031394;28;20220;-85
2024/03/06 05:56:45;;;;;;;4.17;3.77;;;;;;;8.10;95.22;95660.59;5041658;28;20236;-84
2024/03/06 05:59:12;;;;;;;3.70;3.40;;;;;;;8.07;94.72;95653.25;5048222;28;20664;-85
2024/03/06 06:01:38;;;;;;;3.90;3.60;;;;;;;8.06;94.32;95649.09;5031568;28;20569;-84
2024/03/06 06:04:06;;;;;;;4.17;3.60;;;;;;;7.97;94.59;95655.94;5030757;28;20202;-85
2024/03/06 06:06:33;;;;;;;4.07;3.77;;;;;;;7.91;95.16;95670.19;5029533;28;20202;-84
2024/03/06 06:09:02;;;;;;;3.87;3.47;;;;;;;7.95;95.67;95680.94;5022407;28;20199;-85
2024/03/06 06:11:28;;;;;;;4.10;3.70;;;;;;;8.00;95.59;95691.53;5029598;28;20214;-84
2024/03/06 06:13:54;;;;;;;4.00;3.60;;;;;;;8.05;95.27;95684.16;5049483;28;20291;-85
2024/03/06 06:16:21;;;;;;;4.00;3.60;;;;;;;7.94;94.84;95677.56;5051030;28;20236;-84
2024/03/06 06:18:47;;;;;;;4.00;3.70;;;;;;;7.96;95.28;95687.66;5051282;28;20205;-84
2024/03/06 06:21:16;;;;;;;4.00;3.70;;;;;;;8.04;95.57;95694.59;5036363;28;20218;-84
2024/03/06 06:23:42;;;;;;;3.90;3.60;;;;;;;7.96;94.60;95682.53;5031652;28;20264;-85
2024/03/06 06:26:10;;;;;;;3.80;3.50;;;;;;;7.98;94.44;95685.75;5031037;28;20690;-84
2024/03/06 06:28:36;;;;;;;3.70;3.40;;;;;;;7.91;93.94;95679.63;5036782;28;20259;-84
2024/03/06 06:31:04;;;;;;;3.60;3.30;;;;;;;7.88;93.49;95677.41;5050702;28;20237;-84
2024/03/06 06:33:32;;;;;;;3.47;3.17;;;;;;;7.83;94.29;95688.13;5049997;28;20255;-85
2024/03/06 06:35:58;;;;;;;3.80;3.50;;;;;;;7.82;94.88;95701.91;5050818;28;20251;-84
2024/03/06 06:38:26;;;;;;;3.87;3.57;;;;;;;7.81;95.95;95725.94;5051026;28;20221;-85
2024/03/06 06:40:52;;;;;;;3.77;3.47;;;;;;;7.80;96.89;95734.59;5050628;28;20229;-85
2024/03/06 06:43:19;;;;;;;3.50;3.20;;;;;;;7.88;95.82;95726.94;5050769;28;20901;-84
2024/03/06 06:45:48;;;;;;;3.57;3.27;;;;;;;7.91;94.31;95706.09;5047445;28;20737;-84
2024/03/06 06:48:15;;;;;;;4.30;3.90;;;;;;;7.89;94.38;95702.06;5048079;28;20197;-85
2024/03/06 06:50:41;;;;;;;8.77;7.83;;;;;;;7.84;94.63;95714.56;5029612;28;20241;-84
2024/03/06 06:53:07;;;;;;;4.60;4.20;;;;;;;7.82;93.62;95693.41;5031490;28;20254;-84
2024/03/06 06:55:36;;;;;;;4.00;3.50;;;;;;;7.80;94.48;95703.81;5026951;28;20219;-83
2024/03/06 06:58:02;;;;;;;3.97;3.53;;;;;;;7.80;95.54;95718.41;5019125;28;20197;-82
2024/03/06 07:00:30;;;;;;;4.10;3.80;;;;;;;7.84;94.51;95710.25;5033964;28;20221;-83
2024/03/06 07:02:58;;;;;;;3.80;3.50;;;;;;;7.92;94.67;95715.38;5043642;28;20205;-84
2024/03/06 07:05:25;;;;;;;4.10;3.60;;;;;;;7.95;94.50;95714.25;5030584;28;20209;-84
2024/03/06 07:07:51;;;;;;;5.70;3.70;;;;;;;7.96;94.21;95708.19;5030588;28;20197;-83
2024/03/06 07:10:17;;;;;;;4.40;4.00;;;;;;;7.94;93.79;95700.66;5030270;28;20234;-83
2024/03/06 07:12:45;;;;;;;4.23;3.83;;;;;;;7.94;93.99;95705.78;5030208;28;20249;-84
2024/03/06 07:15:12;;;;;;;4.40;4.00;;;;;;;7.91;93.59;95705.28;5030443;28;20268;-84
2024/03/06 07:17:38;;;;;;;4.00;3.70;;;;;;;7.87;94.20;95707.38;5042734;28;20209;-85
2024/03/06 07:20:08;;;;;;;4.20;3.80;;;;;;;7.90;93.90;95719.06;5050984;28;20264;-84
2024/03/06 07:22:34;;;;;;;4.53;3.97;;;;;;;7.80;93.32;95701.25;5050478;28;20205;-84
2024/03/06 07:25:01;;;;;;;4.77;4.37;;;;;;;7.75;93.89;95716.28;5049597;28;20201;-84
2024/03/06 07:27:28;;;;;;;4.07;3.70;;;;;;;7.73;94.39;95719.97;5050508;28;20205;-84
2024/03/06 07:29:55;;;;;;;4.27;3.87;;;;;;;7.74;94.68;95736.94;5049383;28;20244;-84
2024/03/06 07:32:22;;;;;;;4.30;3.90;;;;;;;7.71;94.76;95729.56;5046672;28;20635;-84
2024/03/06 07:34:48;;;;;;;3.70;3.40;;;;;;;7.71;94.70;95732.13;5048162;28;20296;-85
2024/03/06 07:37:15;;;;;;;4.27;3.87;;;;;;;7.73;94.99;95751.53;5050330;28;20201;-84
2024/03/06 07:39:41;;;;;;;3.70;3.40;;;;;;;7.69;94.35;95740.00;5050705;28;20273;-84
2024/03/06 07:42:08;;;;;;;3.70;3.37;;;;;;;7.71;94.54;95740.63;5050962;28;20227;-84
2024/03/06 07:44:35;;;;;;;4.10;3.70;;;;;;;7.75;93.89;95741.91;5049193;28;20198;-85
2024/03/06 07:47:03;;;;;;;3.47;3.17;;;;;;;7.69;93.62;95734.88;5031391;28;20225;-84
2024/03/06 07:49:30;;;;;;;4.17;3.10;;;;;;;7.67;93.56;95739.34;5038719;28;20197;-85
2024/03/06 07:51:58;;;;;;;3.60;3.30;;;;;;;7.67;93.54;95733.41;5041224;28;20230;-84
2024/03/06 07:54:25;;;;;;;4.00;3.40;;;;;;;7.72;94.05;95752.47;5012740;28;20226;-84
2024/03/06 07:56:53;;;;;;;3.57;3.27;;;;;;;7.74;94.54;95768.50;5010033;28;20249;-85
2024/03/06 07:59:19;;;;;;;3.50;3.20;;;;;;;7.75;94.34;95756.50;5010655;28;20207;-85
2024/03/06 08:01:46;;;;;;;3.30;3.00;;;;;;;7.78;94.55;95769.00;5012348;28;20226;-84
2024/03/06 08:04:14;;;;;;;3.40;3.10;;;;;;;7.80;93.71;95754.28;5015827;28;20199;-84
2024/03/06 08:06:41;;;;;;;4.13;3.73;;;;;;;7.78;93.23;95744.19;5049850;28;20291;-84
2024/03/06 08:09:07;;;;;;;7.10;6.40;;;;;;;7.76;93.66;95752.97;5055617;28;20201;-84
2024/03/06 08:11:34;;;;;;;4.13;3.73;;;;;;;7.78;94.38;95766.44;5052025;28;20214;-85
2024/03/06 08:14:01;;;;;;;3.50;3.20;;;;;;;7.84;93.83;95760.72;5035580;28;20237;-84
2024/03/06 08:16:29;;;;;;;3.80;3.50;;;;;;;7.85;92.98;95749.50;5034286;28;20212;-85
2024/03/06 08:18:56;;;;;;;3.60;3.30;;;;;;;7.86;94.11;95767.28;5035232;28;20198;-84
2024/03/06 08:21:24;;;;;;;3.70;3.30;;;;;;;7.83;94.46;95777.03;5038735;28;20229;-84
2024/03/06 08:23:50;;;;;;;3.73;3.30;;;;;;;7.83;93.64;95767.59;5053745;28;20218;-84
2024/03/06 08:26:17;;;;;;;3.67;3.20;;;;;;;7.83;92.35;95744.53;5054357;28;20201;-84
2024/03/06 08:28:43;;;;;;;3.60;3.30;;;;;;;7.82;92.36;95745.47;5055419;28;20206;-84
2024/03/06 08:31:12;;;;;;;3.53;3.23;;;;;;;7.82;92.50;95745.47;5054711;28;20233;-84
2024/03/06 08:33:38;;;;;;;3.67;3.33;;;;;;;7.84;92.70;95750.47;5053696;28;20260;-84
2024/03/06 08:36:05;;;;;;;3.77;3.30;;;;;;;7.84;92.67;95751.25;5054583;28;20221;-85
2024/03/06 08:38:33;;;;;;;3.60;3.30;;;;;;;7.87;92.84;95758.66;5049766;28;20547;-84
2024/03/06 08:40:59;;;;;;;4.10;3.70;;;;;;;7.90;93.09;95760.88;5051163;28;20230;-84
2024/03/06 08:43:26;;;;;;;3.60;3.30;;;;;;;7.95;92.82;95776.59;5035784;28;20198;-84
2024/03/06 08:45:52;;;;;;;4.00;3.60;;;;;;;7.96;92.89;95765.38;5036099;28;20234;-84
2024/03/06 08:48:19;;;;;;;12.03;10.77;;;;;;;7.98;93.21;95772.94;5038686;28;20288;-84
2024/03/06 08:50:45;;;;;;;11.80;10.63;;;;;;;8.04;93.81;95781.75;5056323;28;20286;-84
2024/03/06 08:53:13;;;;;;;5.73;5.10;;;;;;;8.04;93.55;95782.56;5055496;28;20266;-84
2024/03/06 08:55:41;;;;;;;3.43;3.13;;;;;;;7.96;92.50;95762.03;5059029;28;20225;-85
2024/03/06 08:58:08;;;;;;;3.53;3.23;;;;;;;7.92;92.87;95774.34;5058003;28;20263;-85
2024/03/06 09:00:35;;;;;;;3.83;3.23;;;;;;;7.90;92.33;95763.44;5058558;28;20275;-85
2024/03/06 09:03:01;;;;;;;3.80;3.50;;;;;;;7.91;93.57;95785.56;5057597;28;20202;-85
2024/03/06 09:05:28;;;;;;;3.53;3.23;;;;;;;7.91;93.64;95790.69;5057785;28;20197;-84
2024/03/06 09:07:54;;;;;;;4.13;3.53;;;;;;;7.87;93.46;95794.53;5056676;28;20622;-85
2024/03/06 09:10:21;;;;;;;4.30;3.90;;;;;;;7.83;94.13;95803.47;5054015;28;20264;-85
2024/03/06 09:12:48;;;;;;;4.07;3.77;;;;;;;7.87;93.81;95806.53;5044286;28;20225;-84
2024/03/06 09:15:16;;;;;;;3.87;3.27;;;;;;;7.84;93.40;95806.84;5037314;28;20222;-85
2024/03/06 09:17:42;;;;;;;3.63;3.30;;;;;;;7.83;92.68;95795.78;5037702;28;20725;-85
2024/03/06 09:20:10;;;;;;;3.63;3.33;;;;;;;7.89;93.63;95812.28;5037783;28;20218;-85
2024/03/06 09:22:37;;;;;;;4.00;3.60;;;;;;;7.98;94.55;95826.75;5037065;28;20248;-84
2024/03/06 09:25:05;;;;;;;11.53;10.33;;;;;;;8.00;94.12;95819.72;5035436;28;20905;-84
2024/03/06 09:27:31;;;;;;;3.97;3.63;;;;;;;8.00;92.82;95800.97;5056010;28;20213;-84
2024/03/06 09:29:59;;;;;;;3.37;3.07;;;;;;;8.02;93.15;95806.75;5056164;28;20200;-84
2024/03/06 09:32:27;;;;;;;3.30;3.00;;;;;;;8.02;93.17;95806.75;5056378;28;20205;-85
2024/03/06 09:34:53;;;;;;;3.30;3.00;;;;;;;8.04;93.02;95812.53;5049198;28;20253;-84
2024/03/06 09:37:20;;;;;;;3.10;2.80;;;;;;;7.99;92.52;95800.16;5037124;28;20202;-85
2024/03/06 09:39:47;;;;;;;3.33;2.70;;;;;;;8.03;93.01;95819.41;5036559;28;20868;-84
2024/03/06 09:42:13;;;;;;;2.93;2.63;;;;;;;8.01;92.49;95808.50;5043111;28;20863;-85
2024/03/06 09:44:40;;;;;;;2.73;2.53;;;;;;;8.05;92.57;95816.69;5042173;28;20203;-84
2024/03/06 09:47:09;;;;;;;2.50;2.30;;;;;;;8.08;92.57;95812.03;5017882;28;20210;-84
2024/03/06 09:49:36;;;;;;;2.80;2.60;;;;;;;8.06;91.39;95798.59;5045525;28;20202;-85
2024/03/06 09:52:05;;;;;;;2.33;2.13;;;;;;;8.07;91.76;95804.53;5055260;28;20228;-83
2024/03/06 09:54:31;;;;;;;2.73;2.53;;;;;;;8.06;92.50;95816.56;5054973;28;20218;-85
2024/03/06 09:56:58;;;;;;;2.60;2.40;;;;;;;8.03;93.45;95827.13;5056678;28;20198;-85
2024/03/06 09:59:27;;;;;;;2.60;2.40;;;;;;;8.05;93.80;95829.53;5038472;28;20206;-84
2024/03/06 10:01:55;;;;;;;6.37;5.40;;;;;;;8.08;94.34;95853.06;5036227;28;20294;-85
2024/03/06 10:04:24;;;;;;;7.10;6.40;;;;;;;8.13;94.93;95863.69;5036846;28;20198;-84
2024/03/06 10:06:54;;;;;;;3.67;3.37;;;;;;;8.14;96.45;95885.81;5036531;28;20207;-84
2024/03/06 10:09:22;;;;;;;3.97;3.00;;;;;;;8.13;94.67;95858.56;5036286;28;20268;-84
2024/03/06 10:11:48;;;;;;;3.30;3.00;;;;;;;8.13;95.21;95868.81;5036125;28;20214;-85
2024/03/06 10:14:15;;;;;;;3.43;3.13;;;;;;;8.08;95.80;95876.16;5040520;28;20201;-84
2024/03/06 10:16:56;;;;;;;3.27;2.97;;;;;;;8.06;94.78;95861.91;5048619;28;20726;-84
2024/03/06 10:19:25;;;;;;;3.20;2.90;;;;;;;8.04;95.87;95889.47;5035626;28;20217;-84
2024/03/06 10:21:52;;;;;;;3.77;3.00;;;;;;;8.12;95.51;95884.34;5037783;28;20280;-84
2024/03/06 10:24:23;;;;;;;3.27;2.97;;;;;;;8.15;94.72;95871.22;5035467;28;20297;-84
2024/03/06 10:26:49;;;;;;;3.40;3.10;;;;;;;8.17;93.99;95861.63;5034557;28;20273;-85
2024/03/06 10:29:18;;;;;;;3.00;2.80;;;;;;;8.19;94.58;95867.41;5035124;28;20206;-84
2024/03/06 10:31:52;;;;;;;2.83;2.63;;;;;;;8.21;94.92;95875.75;5037818;28;20261;-85
2024/03/06 10:34:20;;;;;;;4.90;4.50;;;;;;;8.29;94.34;95873.19;5040962;28;20252;-84
2024/03/06 10:36:51;;;;;;;5.67;5.07;;;;;;;8.28;94.24;95869.03;5033146;28;20214;-84
2024/03/06 10:39:20;;;;;;;3.50;3.20;;;;;;;8.28;93.91;95871.59;5033812;28;20206;-84
2024/03/06 10:41:48;;;;;;;2.97;2.70;;;;;;;8.32;93.96;95873.72;5028327;28;20221;-83
2024/03/06 10:44:18;;;;;;;2.90;2.70;;;;;;;8.35;94.89;95892.34;5034137;28;20259;-84
2024/03/06 10:46:47;;;;;;;4.60;3.17;;;;;;;8.27;94.67;95886.16;5035523;28;20206;-84
2024/03/06 10:49:14;;;;;;;4.00;3.60;;;;;;;8.16;94.73;95889.03;5042231;28;20200;-84
2024/03/06 11:05:17;;;;;;;3.53;3.23;;;;;;;8.38;95.13;95907.41;4928075;28;20210;-84
2024/03/06 11:07:46;;;;;;;3.63;3.33;;;;;;;8.38;94.12;95886.91;4973962;28;20208;-84
2024/03/06 11:10:31;;;;;;;3.60;3.30;;;;;;;8.31;94.96;95900.31;4998723;28;20218;-85
2024/03/06 11:13:01;;;;;;;3.53;3.23;;;;;;;8.29;94.32;95891.94;5010240;28;20919;-83
2024/03/06 11:15:59;;;;;;;3.60;3.30;;;;;;;8.34;95.01;95899.22;5018234;28;20225;-82
2024/03/06 11:23:56;;;;;;;;;;;;;;;;;;;;;
2024/03/06 11:44:33;;;;;;;4.67;3.93;;;;;;;8.43;95.08;95910.34;4950305;28;20759;-83
2024/03/06 11:54:28;;;;;;;5.23;4.57;;;;;;;8.38;96.12;95920.25;4974486;28;20231;-83
2024/03/06 11:57:31;;;;;;;6.30;5.20;;;;;;;8.38;95.24;95910.78;4977279;28;20236;-83
2024/03/06 12:02:47;;;;;;;7.57;5.93;;;;;;;8.43;93.77;95887.25;4988026;28;20231;-82
2024/03/06 12:05:16;;;;;;;6.13;5.30;;;;;;;8.44;94.49;95896.53;5035206;28;20261;-84
2024/03/06 12:07:49;;;;;;;6.10;5.40;;;;;;;8.46;93.53;95885.16;5055884;28;20197;-83
2024/03/06 12:10:17;;;;;;;6.13;5.50;;;;;;;8.46;92.95;95874.91;5059742;28;20240;-83
2024/03/06 12:12:44;;;;;;;6.40;5.70;;;;;;;8.43;93.19;95876.97;5055999;28;20193;-83
2024/03/06 12:15:12;;;;;;;6.57;5.80;;;;;;;8.43;92.40;95871.84;5059056;28;20201;-84
2024/03/06 12:17:46;;;;;;;6.73;6.00;;;;;;;8.43;92.78;95879.53;5065211;28;20228;-83
2024/03/06 12:20:14;;;;;;;7.60;6.20;;;;;;;8.40;92.95;95883.22;5081317;28;20224;-83
2024/03/06 12:22:49;;;;;;;6.20;5.60;;;;;;;8.41;94.08;95897.66;5068377;28;20231;-83
2024/03/06 12:25:21;;;;;;;7.03;6.33;;;;;;;8.42;95.79;95936.94;5061073;28;20201;-83
2024/03/06 12:27:47;;;;;;;10.87;9.27;;;;;;;8.46;96.91;95944.19;5060977;28;20232;-83